Aeroporto :
LOGIN :

Iscrizione | Disclaimer

   EN    FR    IT 

 










Sommario :    VFR   VFR Marginale   IFR   IFR Intensivo   IFR Molto Intensivo
Visibilità : 
Base nubi : 
>= 8 km
>= 3000ft
5 / 8 km
1000 / 3000 ft
1500m / 5 km
500 / 1000 ft
800 / 1500m
200 / 500 ft
< 800m
< 200 ft
Simboli :   Temporali  Nebbia  Neve Forte  Precipitazioni Forti  Vento > 20 kt
SIGMETs :   Varie  Temporali  Ghiacco  Turbolenza  Onda orograficha  Ceneri Vulcaniche







- Altitudine del aeroporto : 1302 ft
- Codice IATA : GNB
- Carte del aeroporto


LFLS - Grenoble / St. Geoirs

ULTIMO METAR :
  • 241630Z AUTO 01013KT 9999 BKN050 17/04 Q1027 TEMPO 35015G25KT

METARs OBSOLETI :
  • 241600Z AUTO 34016KT 320V020 9999 BKN050 17/05 Q1026 TEMPO 35015G25KT
  • 241530Z AUTO 34017KT 300V360 9999 BKN049 BKN056 17/05 Q1026 TEMPO 35015G25KT
  • 241500Z AUTO 34016KT 9999 BKN046 OVC052 17/06 Q1027 TEMPO 35015G25KT
  • 241430Z AUTO 34016KT 310V010 9999 BKN043 OVC050 16/06 Q1027 TEMPO 35015G25KT
  • 241400Z AUTO 33016KT 9999 BKN041 BKN056 16/06 Q1026 TEMPO 35015G25KT

TAF TAF LFLS
Valido dal 24 a 15 ore il 25 a 15 ore UTC


241400Z 2415/2515 35012KT 9999 BKN040
TEMPO 2415/2418 35015G25KT
BECMG 2418/2420 CAVOK
BECMG 2500/2502 VRB03KT
PROB40
TEMPO 2503/2507 BKN010
BECMG 2507/2509 36006KT
ATIS : +33 4 76 65 55 89
Nessun NOTAM noto per questo aeroporto.
1 SIGMET conosciuto per la FIR Marseille (LFMM) :
 
Turbolenza severa
LFMM SIGMET 11 VALID 241500/241900 LFPW
LFMM MARSEILLE FIR/UIR SEV TURB FCST WI N4515 E00515 - N4300 E00545 - N4345 E00245 - N4500 E00315 - N4515 E00515 SFC/FL040 STNR NC=



MetMap, La meteo Aeronautica in un colpo d'occhio ! - Copyright ORBIFLY Dicembre 2007 - Disclaimer

ORBIFLY MET'MAP TEAM :

Programmazione e sviluppo : Alexandra Zaïnal
Concezione e sviluppo : Baudouin d'Aumeries
Co-Programmazione e sviluppo : Marc-Olivier Méhu
Supporto tecnico e logistico : Manuel Goepfert
Aiuto per la traduzione : Arnaldo La Scala

Contatto : metmap@orbifly.com




FONTI E CREDITI :

   NOAA